Time;durP1;ratioP1;P1;durP2;ratioP2;P2;SDS_P1;SDS_P2;PMS_P1;PMS_P2;Temp;Humidity;BMP_temperature;BMP_pressure;BME280_temperature;BME280_humidity;BME280_pressure;Samples;Min_cycle;Max_cycle;Signal;HPM_P1;HPM_P2
2022/02/07 00:03:44;;;;;;;2.28;1.30;;;;;;;22.35;21.97;96286.34;5030117;28;20072;-81
2022/02/07 00:06:13;;;;;;;1.77;1.27;;;;;;;22.22;21.87;96284.94;5021949;28;20037;-82
2022/02/07 00:08:40;;;;;;;0.60;0.40;;;;;;;21.88;22.36;96280.38;5027086;28;20033;-81
2022/02/07 00:11:06;;;;;;;0.40;0.30;;;;;;;22.35;21.70;96288.34;5026354;28;20504;-81
2022/02/07 00:13:32;;;;;;;0.50;0.30;;;;;;;22.58;21.58;96282.16;5026323;28;20029;-81
2022/02/07 00:15:58;;;;;;;0.30;0.30;;;;;;;22.93;21.35;96274.19;5026478;28;20370;-82
2022/02/07 00:18:24;;;;;;;0.30;0.20;;;;;;;23.00;20.94;96263.47;5027531;28;20049;-82
2022/02/07 00:20:51;;;;;;;0.40;0.30;;;;;;;22.65;21.41;96262.28;5024016;28;20513;-82
2022/02/07 00:23:17;;;;;;;0.30;0.13;;;;;;;23.24;20.55;96267.09;5026590;28;20053;-82
2022/02/07 00:25:44;;;;;;;2.15;0.20;;;;;;;22.97;21.12;96266.41;5028538;28;20057;-82
2022/02/07 00:28:10;;;;;;;0.47;0.20;;;;;;;22.69;21.13;96260.88;5030667;28;20034;-82
2022/02/07 00:30:37;;;;;;;0.15;0.10;;;;;;;22.82;21.40;96260.69;5020315;28;20033;-82
2022/02/07 00:33:03;;;;;;;0.30;0.20;;;;;;;22.37;21.57;96255.13;5029406;28;20037;-81
2022/02/07 00:35:29;;;;;;;1.08;0.20;;;;;;;22.30;21.63;96249.84;5026957;28;20061;-82
2022/02/07 00:37:58;;;;;;;0.15;0.13;;;;;;;22.21;21.65;96252.63;5031026;28;20044;-82
2022/02/07 00:43:00;;;;;;;0.20;0.13;;;;;;;22.64;21.66;96258.69;5029723;28;20103;-82
2022/02/07 00:48:01;;;;;;;0.20;0.10;;;;;;;21.22;23.06;96248.31;5030873;28;20524;-82
2022/02/07 00:50:28;;;;;;;0.38;0.10;;;;;;;22.40;21.44;96256.97;5026999;28;20094;-82
2022/02/07 00:52:54;;;;;;;0.88;0.10;;;;;;;22.84;21.30;96249.03;5025274;28;20046;-82
2022/02/07 00:55:20;;;;;;;1.40;0.20;;;;;;;23.05;21.21;96256.44;5026128;28;20037;-81
2022/02/07 00:57:46;;;;;;;0.22;0.10;;;;;;;22.77;21.34;96252.94;5028655;28;20040;-81
2022/02/07 01:00:13;;;;;;;0.20;0.20;;;;;;;22.54;21.25;96250.75;5028328;28;20026;-81
2022/02/07 01:02:39;;;;;;;0.38;0.20;;;;;;;23.36;20.67;96254.94;5028453;28;20029;-82
2022/02/07 01:05:07;;;;;;;0.10;0.10;;;;;;;23.81;20.11;96245.53;5028825;28;20026;-82
2022/02/07 01:07:33;;;;;;;0.00;0.00;;;;;;;23.38;20.63;96252.44;5022074;28;20512;-82
2022/02/07 01:09:59;;;;;;;0.20;0.10;;;;;;;22.62;21.60;96249.22;5028782;28;20497;-81
2022/02/07 01:23:04;;;;;;;0.50;0.10;;;;;;;23.32;21.36;96242.34;5023697;28;20045;-82
2022/02/07 01:57:55;;;;;;;0.10;0.10;;;;;;;24.13;20.53;96182.28;5025834;28;20052;-82
2022/02/07 02:00:21;;;;;;;0.10;0.03;;;;;;;23.63;21.05;96180.44;5030419;28;20536;-82
2022/02/07 02:02:48;;;;;;;0.63;0.20;;;;;;;23.60;21.01;96151.34;5033602;28;20418;-82
2022/02/07 02:05:15;;;;;;;0.10;0.10;;;;;;;23.69;20.81;96145.66;5030798;28;20030;-82
2022/02/07 02:07:42;;;;;;;0.25;0.05;;;;;;;23.45;20.90;96160.94;5027738;28;20436;-82
2022/02/07 02:10:10;;;;;;;0.17;0.00;;;;;;;24.00;20.32;96148.88;5025696;28;20031;-82
2022/02/07 02:12:51;;;;;;;0.20;0.10;;;;;;;24.01;20.20;96146.84;5027221;28;20029;-82
2022/02/07 02:15:38;;;;;;;0.00;0.00;;;;;;;23.71;20.37;96153.63;5024643;28;20449;-82
2022/02/07 02:18:53;;;;;;;0.00;0.00;;;;;;;23.94;20.45;96159.19;5026124;28;20045;-82
2022/02/07 02:45:39;;;;;;;0.10;0.10;;;;;;;24.81;19.08;96176.69;5029879;28;20099;-81
2022/02/07 02:48:14;;;;;;;0.10;0.10;;;;;;;24.39;19.73;96177.69;5026100;28;20032;-82
2022/02/07 02:50:42;;;;;;;0.03;0.03;;;;;;;24.12;19.63;96174.34;5028742;28;20417;-82
2022/02/07 02:53:14;;;;;;;0.10;0.00;;;;;;;24.42;19.65;96176.72;5024947;28;20038;-82
2022/02/07 02:55:43;;;;;;;0.13;0.10;;;;;;;24.40;19.42;96168.00;5038849;28;20409;-82
2022/02/07 02:58:13;;;;;;;0.10;0.10;;;;;;;24.01;19.50;96160.88;5027777;28;20478;-82
2022/02/07 03:00:42;;;;;;;0.22;0.10;;;;;;;23.19;20.48;96149.38;5030195;28;20029;-82
2022/02/07 03:03:08;;;;;;;0.03;0.03;;;;;;;22.96;20.87;96138.94;5027280;28;20025;-82
2022/02/07 03:05:34;;;;;;;0.00;0.00;;;;;;;23.11;20.68;96131.38;5025942;28;20044;-82
2022/02/07 03:08:00;;;;;;;0.10;0.10;;;;;;;23.03;20.87;96142.16;5025672;28;20033;-82
2022/02/07 03:10:31;;;;;;;0.17;0.10;;;;;;;22.57;21.24;96155.50;5027564;28;20040;-81
2022/02/07 03:18:32;;;;;;;0.15;0.15;;;;;;;23.31;20.45;96142.78;5026376;28;20053;-82
2022/02/07 03:20:58;;;;;;;0.20;0.15;;;;;;;22.44;21.20;96145.75;5031926;28;20029;-82
2022/02/07 03:23:26;;;;;;;0.63;0.30;;;;;;;21.81;21.80;96150.13;5023808;28;20044;-82
2022/02/07 03:25:53;;;;;;;0.25;0.15;;;;;;;22.97;20.73;96155.22;5028492;28;20053;-82
2022/02/07 03:28:20;;;;;;;1.00;0.10;;;;;;;23.14;20.67;96144.44;5029167;28;20030;-82
2022/02/07 03:30:46;;;;;;;1.05;0.10;;;;;;;22.78;21.04;96147.41;5028887;28;20036;-82
2022/02/07 03:33:12;;;;;;;0.65;0.17;;;;;;;22.89;21.00;96147.66;5028567;28;20037;-82
2022/02/07 03:35:39;;;;;;;0.20;0.13;;;;;;;23.48;20.46;96127.13;5029381;28;20041;-82
2022/02/07 03:38:07;;;;;;;0.15;0.15;;;;;;;23.57;19.96;96113.06;5025692;28;20036;-82
2022/02/07 03:40:33;;;;;;;0.45;0.20;;;;;;;24.24;19.44;96109.59;5023806;28;20030;-82
2022/02/07 03:42:59;;;;;;;0.20;0.17;;;;;;;24.33;19.35;96098.28;5026729;28;20036;-82
2022/02/07 03:45:26;;;;;;;0.17;0.10;;;;;;;24.16;19.67;96118.84;5024121;28;20503;-82
2022/02/07 03:47:52;;;;;;;0.20;0.20;;;;;;;24.32;19.60;96132.41;5030955;28;20083;-82
2022/02/07 03:50:19;;;;;;;0.20;0.10;;;;;;;23.63;20.36;96130.78;5026155;28;20037;-82
2022/02/07 03:52:45;;;;;;;0.52;0.22;;;;;;;24.17;19.48;96118.38;5026226;28;20517;-82
2022/02/07 03:55:11;;;;;;;0.20;0.10;;;;;;;24.61;18.89;96107.16;5029960;28;20072;-82
2022/02/07 03:57:37;;;;;;;0.10;0.10;;;;;;;24.69;19.00;96109.06;5027309;28;20041;-82
2022/02/07 04:00:07;;;;;;;0.35;0.20;;;;;;;24.43;19.33;96110.94;5022900;28;20030;-82
2022/02/07 04:02:39;;;;;;;0.65;0.20;;;;;;;24.42;19.31;96111.41;5028271;28;20099;-82
2022/02/07 04:05:34;;;;;;;0.10;0.10;;;;;;;23.94;19.63;96105.16;5015439;28;20056;-82
2022/02/07 04:07:52;;;;;;;0.10;0.10;;;;;;;24.20;19.70;96108.97;5024097;28;20045;-82
2022/02/07 04:10:19;;;;;;;0.73;0.40;;;;;;;23.74;19.99;96119.03;5024459;28;20040;-82
2022/02/07 04:12:51;;;;;;;0.40;0.20;;;;;;;24.46;19.47;96129.59;5033964;28;20507;-82
2022/02/07 04:15:19;;;;;;;3.58;0.65;;;;;;;23.79;19.44;96132.38;5024173;28;20030;-82
2022/02/07 04:17:52;;;;;;;1.02;0.40;;;;;;;24.55;19.14;96145.59;5028796;28;20092;-82
2022/02/07 04:20:19;;;;;;;2.60;1.05;;;;;;;24.13;19.32;96154.25;5022044;28;20029;-82
2022/02/07 04:22:45;;;;;;;1.15;0.55;;;;;;;24.21;19.69;96158.22;5034335;28;20409;-82
2022/02/07 04:25:12;;;;;;;0.70;0.30;;;;;;;24.33;19.20;96157.16;5023537;28;20029;-82
2022/02/07 04:27:38;;;;;;;1.92;1.05;;;;;;;24.72;19.04;96155.81;5035998;28;20065;-82
2022/02/07 04:30:06;;;;;;;1.15;0.70;;;;;;;25.03;18.57;96154.56;5027434;28;20038;-82
2022/02/07 04:32:32;;;;;;;0.95;0.50;;;;;;;24.25;19.48;96158.03;5023012;28;20116;-82
2022/02/07 04:34:58;;;;;;;0.75;0.60;;;;;;;24.56;19.06;96175.97;5029548;28;20085;-82
2022/02/07 04:37:25;;;;;;;0.70;0.43;;;;;;;24.92;18.70;96176.84;5026504;28;20165;-82
2022/02/07 04:39:53;;;;;;;0.60;0.30;;;;;;;24.73;19.17;96168.63;5027209;28;20120;-82
2022/02/07 04:42:21;;;;;;;0.40;0.40;;;;;;;24.04;19.82;96166.28;5021704;28;20041;-82
2022/02/07 04:45:16;;;;;;;2.45;0.77;;;;;;;23.92;19.94;96177.75;5026279;28;20037;-82
2022/02/07 04:50:38;;;;;;;0.75;0.25;;;;;;;23.74;20.50;96161.84;5027555;28;20053;-82
2022/02/07 05:01:21;;;;;;;1.20;0.73;;;;;;;23.33;20.85;96190.69;5027676;28;20034;-82
2022/02/07 05:03:53;;;;;;;1.60;0.90;;;;;;;23.78;20.67;96195.28;5023338;28;20067;-82
2022/02/07 05:14:35;;;;;;;1.15;0.75;;;;;;;23.96;20.41;96212.75;5029009;28;20044;-82
2022/02/07 05:17:03;;;;;;;0.82;0.52;;;;;;;24.61;20.39;96210.97;5028782;28;20486;-82
2022/02/07 05:19:29;;;;;;;1.85;1.13;;;;;;;25.03;19.45;96213.53;5032416;28;20026;-82
2022/02/07 05:21:55;;;;;;;2.22;1.15;;;;;;;25.05;19.62;96211.78;5027544;28;20374;-82
2022/02/07 05:24:21;;;;;;;3.42;1.23;;;;;;;24.34;20.32;96219.66;5031635;28;20393;-82
2022/02/07 05:26:47;;;;;;;2.78;0.93;;;;;;;23.95;20.71;96227.22;5032956;28;20052;-82
2022/02/07 05:29:13;;;;;;;3.22;1.48;;;;;;;22.85;21.90;96242.97;5026631;28;20024;-82
2022/02/07 05:31:39;;;;;;;3.47;1.15;;;;;;;21.82;23.41;96252.22;5029136;28;20064;-82
2022/02/07 05:34:07;;;;;;;2.58;0.80;;;;;;;21.50;23.81;96247.19;5025762;28;20497;-82
2022/02/07 05:36:40;;;;;;;1.25;0.70;;;;;;;20.55;25.36;96234.94;5028726;28;20037;-82
2022/02/07 05:39:06;;;;;;;1.58;0.60;;;;;;;19.99;26.40;96254.44;5030718;28;20026;-82
2022/02/07 05:41:32;;;;;;;1.38;0.52;;;;;;;20.16;25.81;96257.84;5026855;28;20045;-82
2022/02/07 05:43:59;;;;;;;1.38;0.60;;;;;;;20.99;25.02;96271.91;5029330;28;20059;-82
2022/02/07 05:46:25;;;;;;;1.42;0.80;;;;;;;20.62;25.63;96270.13;5028872;28;20124;-82
2022/02/07 05:48:51;;;;;;;2.85;1.05;;;;;;;21.38;24.51;96272.44;5027381;28;20038;-82
2022/02/07 05:51:17;;;;;;;1.30;0.80;;;;;;;21.90;24.05;96280.69;5017985;28;20079;-82
2022/02/07 05:53:43;;;;;;;3.25;1.45;;;;;;;22.75;23.09;96280.59;5023782;28;20029;-82
2022/02/07 05:56:09;;;;;;;0.90;0.65;;;;;;;23.74;21.83;96257.09;5023773;28;20056;-82
2022/02/07 05:58:35;;;;;;;1.30;0.82;;;;;;;23.81;21.58;96262.34;5024105;28;20048;-82
2022/02/07 06:01:02;;;;;;;1.77;1.10;;;;;;;23.60;21.61;96273.81;5026130;28;20065;-83
2022/02/07 06:03:28;;;;;;;2.35;1.20;;;;;;;22.65;22.36;96282.63;5020549;28;20033;-82
2022/02/07 06:05:57;;;;;;;1.55;1.05;;;;;;;22.32;23.38;96287.28;5022337;28;20033;-82
2022/02/07 06:08:23;;;;;;;2.85;0.80;;;;;;;21.45;24.56;96281.28;5018224;28;20026;-82
2022/02/07 06:10:50;;;;;;;0.90;0.70;;;;;;;21.14;24.87;96281.31;5022873;28;20421;-82
2022/02/07 06:13:17;;;;;;;2.08;0.90;;;;;;;22.04;23.84;96291.28;5030451;28;20036;-82
2022/02/07 06:15:44;;;;;;;1.50;0.82;;;;;;;21.75;24.27;96293.69;5037222;28;20040;-82
2022/02/07 06:18:13;;;;;;;2.10;0.90;;;;;;;22.14;23.68;96295.66;5029223;28;20080;-82
2022/02/07 06:20:39;;;;;;;1.50;0.90;;;;;;;22.19;23.37;96303.41;5028300;28;20372;-82
2022/02/07 06:23:05;;;;;;;2.72;1.25;;;;;;;22.13;23.54;96308.06;5032375;28;20037;-83
2022/02/07 06:25:31;;;;;;;2.70;1.10;;;;;;;22.11;23.73;96318.94;5030469;28;20073;-83
2022/02/07 06:27:57;;;;;;;2.35;1.00;;;;;;;21.94;23.75;96320.44;5032423;28;20126;-83
2022/02/07 06:30:23;;;;;;;1.92;1.00;;;;;;;22.32;23.51;96334.81;5030173;28;20521;-82
2022/02/07 06:32:49;;;;;;;2.20;1.30;;;;;;;21.70;24.21;96350.13;5025662;28;20069;-83
2022/02/07 06:35:17;;;;;;;2.45;1.40;;;;;;;20.82;25.28;96359.81;5030096;28;20025;-83
2022/02/07 06:37:43;;;;;;;2.17;0.93;;;;;;;20.79;25.67;96362.75;5030127;28;20053;-83
2022/02/07 06:40:10;;;;;;;1.65;1.00;;;;;;;20.59;25.72;96357.47;5032576;28;20036;-82
2022/02/07 06:42:36;;;;;;;1.30;0.75;;;;;;;19.00;28.05;96404.25;5027678;28;20092;-82
2022/02/07 06:45:04;;;;;;;1.55;0.70;;;;;;;17.09;31.12;96451.69;5031874;28;20561;-83
2022/02/07 06:47:30;;;;;;;1.20;0.55;;;;;;;14.73;34.58;96478.13;5028703;28;20033;-86
2022/02/07 06:49:56;;;;;;;1.23;0.60;;;;;;;14.64;34.45;96483.38;5027070;28;20473;-84
2022/02/07 06:52:22;;;;;;;0.98;0.57;;;;;;;13.60;35.51;96520.41;5019207;28;20125;-84
2022/02/07 06:54:48;;;;;;;0.52;0.40;;;;;;;13.42;35.46;96511.41;5024037;28;20048;-84
2022/02/07 06:57:16;;;;;;;0.50;0.32;;;;;;;13.45;35.41;96524.41;5020784;28;20034;-84
2022/02/07 06:59:44;;;;;;;0.68;0.35;;;;;;;14.51;33.84;96519.00;5022447;28;20563;-84
2022/02/07 07:02:11;;;;;;;0.80;0.40;;;;;;;15.61;32.02;96529.66;5031403;28;20114;-84
2022/02/07 07:04:38;;;;;;;0.30;0.30;;;;;;;17.02;29.73;96538.56;5027064;28;20029;-84
2022/02/07 07:07:04;;;;;;;0.52;0.30;;;;;;;16.84;29.30;96543.63;5029724;28;20037;-85
2022/02/07 07:09:32;;;;;;;0.57;0.40;;;;;;;16.24;30.44;96541.03;5025397;28;20033;-84
2022/02/07 07:12:03;;;;;;;1.30;0.47;;;;;;;16.17;30.70;96564.09;5029374;28;20052;-84
2022/02/07 07:14:39;;;;;;;;;;;;;;;15.73;30.98;96576.13;5043907;28;20058;-83
2022/02/07 07:17:06;;;;;;;0.30;0.20;;;;;;;16.66;29.90;96579.19;5030894;28;20300;-84
2022/02/07 07:19:32;;;;;;;1.17;0.50;;;;;;;16.67;29.58;96583.50;5030102;28;20435;-84
2022/02/07 07:21:59;;;;;;;0.93;0.40;;;;;;;16.03;30.70;96588.41;5027151;28;21053;-83
2022/02/07 07:24:26;;;;;;;1.02;0.65;;;;;;;16.09;30.46;96601.38;5029266;28;20044;-84
2022/02/07 07:26:52;;;;;;;1.02;0.40;;;;;;;16.02;30.71;96595.13;5030126;28;20029;-85
2022/02/07 07:29:25;;;;;;;0.50;0.40;;;;;;;16.48;30.26;96603.56;5027336;28;20473;-82
2022/02/07 07:31:56;;;;;;;0.40;0.40;;;;;;;16.93;29.50;96601.28;5024206;28;20042;-85
2022/02/07 07:34:23;;;;;;;0.90;0.43;;;;;;;16.91;29.45;96607.28;5019327;28;20080;-85
2022/02/07 07:36:49;;;;;;;0.85;0.60;;;;;;;18.28;27.37;96598.25;5025778;28;20029;-85
2022/02/07 07:39:17;;;;;;;1.05;0.50;;;;;;;18.02;27.59;96607.53;5025707;28;20033;-84
2022/02/07 07:41:45;;;;;;;1.38;0.63;;;;;;;17.87;27.81;96609.06;5027768;28;20442;-84
2022/02/07 07:44:17;;;;;;;1.27;0.60;;;;;;;18.24;27.64;96607.88;5020741;28;20034;-84
2022/02/07 07:46:44;;;;;;;1.08;0.70;;;;;;;18.26;27.28;96608.22;5020953;28;20029;-84
2022/02/07 07:49:18;;;;;;;2.08;0.85;;;;;;;18.08;27.69;96616.97;5022660;28;20081;-84
2022/02/07 07:51:51;;;;;;;0.88;0.47;;;;;;;17.18;28.95;96612.72;5023371;28;20128;-84
2022/02/07 07:54:41;;;;;;;0.43;0.40;;;;;;;17.01;29.21;96605.53;5019982;28;20049;-84
2022/02/07 08:02:38;;;;;;;0.60;0.50;;;;;;;18.20;27.64;96613.53;5029534;28;20044;-83
2022/02/07 08:05:14;;;;;;;0.85;0.73;;;;;;;18.06;27.62;96621.38;5025928;28;20099;-83
2022/02/07 08:07:41;;;;;;;1.05;0.70;;;;;;;17.71;28.38;96631.97;5034738;28;20044;-82
2022/02/07 08:10:44;;;;;;;1.67;0.90;;;;;;;17.86;27.88;96638.03;5018289;28;20049;-83
2022/02/07 08:12:53;;;;;;;1.13;0.77;;;;;;;17.48;28.35;96645.09;5025277;28;20048;-83
2022/02/07 08:15:19;;;;;;;0.98;0.85;;;;;;;17.39;28.95;96667.03;5022853;28;20100;-83
2022/02/07 08:17:46;;;;;;;6.57;1.10;;;;;;;17.39;28.27;96673.38;5025245;28;20018;-83
2022/02/07 08:20:12;;;;;;;1.67;0.88;;;;;;;17.56;28.11;96680.63;5034576;28;20034;-83
2022/02/07 08:22:38;;;;;;;1.42;0.95;;;;;;;17.09;28.78;96687.38;5031154;28;20033;-83
2022/02/07 08:25:06;;;;;;;2.85;1.15;;;;;;;16.62;29.33;96691.28;5022740;28;20041;-83
2022/02/07 08:27:32;;;;;;;1.50;0.90;;;;;;;17.58;28.02;96685.75;5031111;28;20409;-83
2022/02/07 08:29:59;;;;;;;4.57;1.88;;;;;;;15.70;29.99;96704.25;5026443;28;20133;-83
2022/02/07 08:32:26;;;;;;;2.92;1.38;;;;;;;16.20;29.96;96700.88;5027099;28;20520;-83
2022/02/07 08:34:53;;;;;;;1.83;1.00;;;;;;;16.97;28.71;96719.22;5035099;28;20072;-83
2022/02/07 08:37:21;;;;;;;1.98;1.42;;;;;;;16.98;28.34;96715.28;5038948;28;20116;-83
2022/02/07 08:39:47;;;;;;;2.33;1.40;;;;;;;16.08;29.97;96724.38;5034762;28;20037;-83
2022/02/07 08:42:13;;;;;;;2.08;1.10;;;;;;;16.83;29.17;96729.75;5033644;28;20034;-83
2022/02/07 08:44:39;;;;;;;1.75;1.23;;;;;;;17.69;28.00;96728.00;5029576;28;20061;-83
2022/02/07 08:47:06;;;;;;;2.22;1.58;;;;;;;16.86;28.82;96732.47;5035815;28;20036;-83
2022/02/07 08:49:32;;;;;;;1.80;1.48;;;;;;;16.58;29.16;96732.88;5035317;28;20026;-84
2022/02/07 08:51:58;;;;;;;3.17;1.33;;;;;;;16.80;28.88;96727.81;5023899;28;20421;-83
2022/02/07 08:54:27;;;;;;;2.70;1.38;;;;;;;17.07;28.54;96723.06;5022114;28;20060;-83
2022/02/07 08:57:03;;;;;;;1.42;1.00;;;;;;;17.73;27.73;96740.59;5036941;28;20034;-83
2022/02/07 08:59:38;;;;;;;4.10;1.42;;;;;;;16.45;28.90;96740.91;5029833;28;20447;-83
2022/02/07 09:02:23;;;;;;;2.33;1.00;;;;;;;16.74;28.74;96741.34;5034936;28;20037;-83
2022/02/07 09:05:07;;;;;;;2.38;1.58;;;;;;;17.16;28.39;96737.97;5022514;28;20081;-83
2022/02/07 09:07:36;;;;;;;4.60;1.40;;;;;;;17.28;27.66;96756.78;5030271;28;20033;-83
2022/02/07 09:10:04;;;;;;;2.92;1.38;;;;;;;17.56;27.35;96769.44;5032896;28;20033;-83
2022/02/07 09:12:31;;;;;;;2.78;1.45;;;;;;;17.99;26.58;96763.13;5028800;28;20444;-82
2022/02/07 09:15:16;;;;;;;1.67;1.02;;;;;;;17.68;26.88;96765.28;5023607;28;20073;-83
2022/02/07 09:17:42;;;;;;;1.83;1.20;;;;;;;17.15;27.11;96782.75;5024082;28;20485;-83
2022/02/07 09:20:09;;;;;;;2.30;0.85;;;;;;;17.00;27.84;96796.03;5028534;28;20065;-83
2022/02/07 09:22:35;;;;;;;4.57;1.40;;;;;;;15.82;28.65;96797.78;5023254;28;20033;-83
2022/02/07 09:25:01;;;;;;;1.92;1.30;;;;;;;15.86;28.91;96806.88;5026710;28;20065;-83
2022/02/07 09:27:27;;;;;;;3.13;1.05;;;;;;;17.23;27.65;96809.16;5024754;28;20046;-83
2022/02/07 09:29:53;;;;;;;2.63;0.88;;;;;;;15.79;28.51;96809.69;5043328;28;20037;-83
2022/02/07 09:32:21;;;;;;;1.90;0.98;;;;;;;15.45;29.30;96819.84;5024057;28;20061;-83
2022/02/07 09:34:47;;;;;;;1.67;0.75;;;;;;;15.36;29.77;96815.94;5032814;28;20442;-83
2022/02/07 09:37:13;;;;;;;3.45;0.75;;;;;;;15.36;29.67;96838.84;5030958;28;20037;-83
2022/02/07 09:39:40;;;;;;;2.50;0.60;;;;;;;15.21;29.20;96818.81;5025843;28;20034;-82
2022/02/07 09:42:06;;;;;;;2.25;0.73;;;;;;;15.67;28.86;96823.22;5034478;28;20021;-82
2022/02/07 09:44:43;;;;;;;1.50;0.70;;;;;;;15.45;29.41;96839.19;5035660;28;20485;-83
2022/02/07 09:47:10;;;;;;;0.88;0.50;;;;;;;16.48;28.01;96841.78;5034584;28;20036;-82
2022/02/07 09:49:36;;;;;;;0.70;0.55;;;;;;;16.37;27.33;96843.91;5027214;28;20030;-81
2022/02/07 09:52:04;;;;;;;0.93;0.60;;;;;;;16.16;28.34;96858.75;5032959;28;20044;-83
2022/02/07 09:54:31;;;;;;;0.98;0.55;;;;;;;16.81;27.18;96860.44;5034672;28;20104;-83
2022/02/07 09:56:59;;;;;;;0.60;0.40;;;;;;;17.71;25.55;96864.38;5031191;28;20022;-83
2022/02/07 09:59:28;;;;;;;1.10;0.60;;;;;;;17.60;26.02;96863.72;5026741;28;20482;-83
2022/02/07 10:01:58;;;;;;;0.82;0.52;;;;;;;17.32;26.30;96872.47;5030953;28;20477;-83
2022/02/07 10:04:31;;;;;;;1.23;0.80;;;;;;;16.04;27.74;96889.72;5029902;28;20037;-83
2022/02/07 10:07:12;;;;;;;1.05;0.50;;;;;;;15.74;28.57;96901.44;5028914;28;20547;-83
2022/02/07 10:09:59;;;;;;;1.55;0.65;;;;;;;16.23;27.42;96896.66;5041843;28;20052;-83
2022/02/07 10:12:37;;;;;;;0.93;0.65;;;;;;;17.10;26.28;96905.25;5034627;28;20029;-83
2022/02/07 10:18:29;;;;;;;0.55;0.32;;;;;;;17.29;26.40;96891.50;5032916;28;20459;-83
2022/02/07 10:35:29;;;;;;;3.08;0.68;;;;;;;16.89;27.15;96924.91;5031880;28;20092;-83
2022/02/07 10:40:54;;;;;;;2.03;0.68;;;;;;;16.06;28.09;96939.94;5027406;28;20048;-82
2022/02/07 10:46:13;;;;;;;2.30;1.10;;;;;;;16.23;27.96;96935.44;5036357;28;20089;-82
2022/02/07 10:48:54;;;;;;;5.55;2.50;;;;;;;16.41;27.84;96945.16;5028553;28;20155;-83
2022/02/07 10:51:21;;;;;;;;;;;;;;;16.83;26.97;96948.72;5027828;28;20041;-82
2022/02/07 10:53:58;;;;;;;2.40;1.20;;;;;;;15.43;30.04;96966.03;5027115;28;19929;-82
2022/02/07 10:56:44;;;;;;;2.55;1.00;;;;;;;16.36;28.58;96950.38;5030089;28;20120;-83
2022/02/07 10:59:14;;;;;;;2.55;1.27;;;;;;;16.81;28.05;96959.44;5031835;28;20472;-83
2022/02/07 11:04:23;;;;;;;2.10;1.20;;;;;;;15.89;29.96;96968.56;5031908;28;20469;-82
2022/02/07 11:06:52;;;;;;;1.27;0.82;;;;;;;14.88;31.84;96993.50;5025593;28;20077;-82
2022/02/07 11:12:08;;;;;;;2.65;0.85;;;;;;;15.45;31.04;97007.16;5030099;28;20469;-82
2022/02/07 11:17:23;;;;;;;3.05;1.20;;;;;;;15.39;30.96;97012.28;5025534;28;20547;-82
2022/02/07 11:25:15;;;;;;;3.17;1.42;;;;;;;16.81;28.66;97035.06;5026258;28;20041;-82
2022/02/07 11:27:50;;;;;;;2.10;1.10;;;;;;;15.35;31.07;97030.88;5039521;28;20029;-82
2022/02/07 11:30:18;;;;;;;1.05;0.70;;;;;;;16.47;29.83;97036.94;5029821;28;20041;-83
2022/02/07 11:32:45;;;;;;;1.08;0.90;;;;;;;17.59;27.84;97043.34;5027148;28;20026;-83
2022/02/07 11:35:13;;;;;;;1.50;1.10;;;;;;;17.90;27.17;97050.47;5025495;28;20037;-83
2022/02/07 11:37:41;;;;;;;3.03;0.90;;;;;;;18.35;26.24;97062.13;5035139;28;20506;-83
2022/02/07 11:40:28;;;;;;;3.00;1.35;;;;;;;17.34;27.11;97075.34;5032053;28;20389;-83
2022/02/07 11:43:11;;;;;;;2.38;1.20;;;;;;;16.67;28.65;97087.06;5031069;28;20037;-82
2022/02/07 11:45:55;;;;;;;1.88;1.35;;;;;;;16.50;28.45;97085.97;5028107;28;20087;-82
2022/02/07 11:48:38;;;;;;;2.53;1.33;;;;;;;17.12;27.98;97088.63;5028591;28;20403;-82
2022/02/07 11:51:29;;;;;;;3.80;1.38;;;;;;;16.36;28.60;97094.41;5032233;28;20033;-82
2022/02/07 11:54:02;;;;;;;1.95;1.10;;;;;;;16.29;29.10;97097.22;5024306;28;20045;-82
2022/02/07 11:56:38;;;;;;;2.55;1.30;;;;;;;17.11;28.25;97103.69;5029153;28;20579;-82
2022/02/07 11:59:18;;;;;;;2.92;1.27;;;;;;;17.46;27.47;97105.31;5024017;28;20504;-82
2022/02/07 12:01:59;;;;;;;2.03;1.20;;;;;;;16.85;28.39;97101.56;5027846;28;20037;-82
2022/02/07 12:04:42;;;;;;;1.65;1.30;;;;;;;18.12;26.46;97109.28;5027379;28;20504;-82
2022/02/07 12:07:14;;;;;;;2.42;1.33;;;;;;;18.21;26.25;97112.34;5029389;28;20030;-82
2022/02/07 12:12:33;;;;;;;3.38;1.50;;;;;;;20.00;24.07;97108.44;5029598;28;20045;-83
2022/02/07 12:15:31;;;;;;;2.58;1.35;;;;;;;20.63;23.44;97117.44;5031723;28;20030;-83
2022/02/07 12:17:59;;;;;;;1.52;1.10;;;;;;;20.78;22.97;97122.69;5030948;28;20027;-83
2022/02/07 12:20:37;;;;;;;3.90;1.40;;;;;;;20.16;23.48;97129.25;5032715;28;20045;-83
2022/02/07 12:23:17;;;;;;;1.98;1.08;;;;;;;18.71;25.41;97143.00;5026171;28;20428;-82
2022/02/07 12:25:47;;;;;;;3.70;1.30;;;;;;;18.10;25.93;97150.59;5023843;28;20041;-82
2022/02/07 12:28:19;;;;;;;2.17;1.10;;;;;;;19.34;24.82;97155.09;5021878;28;20121;-82
2022/02/07 12:33:12;;;;;;;2.72;1.40;;;;;;;17.77;26.69;97165.25;5023407;28;20042;-83
2022/02/07 12:35:38;;;;;;;2.53;1.25;;;;;;;18.14;26.22;97164.41;5023654;28;20112;-83
2022/02/07 12:38:05;;;;;;;4.72;1.80;;;;;;;19.12;24.96;97165.78;5029154;28;20509;-83
2022/02/07 12:40:33;;;;;;;3.80;2.00;;;;;;;18.77;24.70;97163.56;5022677;28;20041;-83
2022/02/07 12:43:04;;;;;;;4.22;1.38;;;;;;;18.35;25.80;97172.47;5025106;28;20037;-83
2022/02/07 12:45:31;;;;;;;3.55;2.15;;;;;;;18.11;26.04;97179.94;5023372;28;20025;-82
2022/02/07 12:48:01;;;;;;;2.08;1.45;;;;;;;18.78;25.22;97181.84;5025632;28;20037;-84
2022/02/07 12:50:27;;;;;;;1.00;0.90;;;;;;;18.86;24.66;97186.06;5032244;28;20030;-82
2022/02/07 12:52:57;;;;;;;2.47;1.10;;;;;;;17.92;26.30;97202.78;5025857;28;20050;-82
2022/02/07 12:55:24;;;;;;;1.98;1.25;;;;;;;17.01;28.04;97199.63;5021666;28;20432;-83
2022/02/07 12:57:50;;;;;;;5.00;1.58;;;;;;;19.41;24.31;97195.94;5018359;28;20056;-83
2022/02/07 13:00:19;;;;;;;2.22;1.70;;;;;;;19.37;24.54;97198.78;5025787;28;20084;-83
2022/02/07 13:02:47;;;;;;;1.98;1.10;;;;;;;18.87;24.90;97197.97;5023186;28;20033;-83
2022/02/07 13:05:16;;;;;;;2.25;1.48;;;;;;;18.14;26.02;97201.31;5029620;28;20401;-83
2022/02/07 13:07:46;;;;;;;3.67;1.48;;;;;;;17.35;26.95;97210.84;5026291;28;20033;-83
2022/02/07 13:10:17;;;;;;;3.28;1.50;;;;;;;17.11;27.20;97211.84;5021929;28;20413;-83
2022/02/07 13:15:30;;;;;;;2.72;1.30;;;;;;;18.84;24.98;97218.28;5022537;28;20521;-83
2022/02/07 13:18:02;;;;;;;2.55;0.90;;;;;;;19.76;23.68;97223.97;5023671;28;20116;-83
2022/02/07 13:20:28;;;;;;;2.17;1.10;;;;;;;20.08;23.15;97231.69;5023746;28;20494;-82
2022/02/07 13:23:10;;;;;;;3.05;1.10;;;;;;;17.99;25.98;97247.16;5023453;28;20038;-82
2022/02/07 13:25:50;;;;;;;1.60;0.88;;;;;;;18.08;25.83;97246.66;5026256;28;20029;-82
2022/02/07 13:28:22;;;;;;;2.95;1.10;;;;;;;17.35;26.87;97246.13;5021296;28;20389;-82
2022/02/07 13:30:54;;;;;;;2.63;1.17;;;;;;;18.76;25.11;97253.78;5025984;28;20064;-82
2022/02/07 13:33:20;;;;;;;2.60;1.17;;;;;;;19.53;23.80;97259.38;5027684;28;20101;-82
2022/02/07 13:35:49;;;;;;;3.03;1.30;;;;;;;19.02;24.37;97266.13;5034389;28;20029;-82
2022/02/07 13:38:17;;;;;;;4.22;1.35;;;;;;;17.90;25.66;97274.59;5028611;28;20038;-82
2022/02/07 13:40:52;;;;;;;3.25;1.10;;;;;;;18.37;24.98;97273.69;5028856;28;20196;-81
2022/02/07 13:43:24;;;;;;;3.15;1.15;;;;;;;17.80;25.80;97283.84;5028957;28;20113;-81
2022/02/07 13:45:53;;;;;;;2.63;1.52;;;;;;;18.09;25.39;97289.88;5029094;28;20048;-80
2022/02/07 13:48:21;;;;;;;2.58;1.23;;;;;;;17.84;26.23;97298.47;5030760;28;20025;-82
2022/02/07 13:50:51;;;;;;;4.32;1.30;;;;;;;18.36;25.11;97302.69;5035860;28;20091;-82
2022/02/07 13:53:18;;;;;;;4.45;1.17;;;;;;;18.27;24.98;97310.72;5034244;28;20068;-83
2022/02/07 13:55:50;;;;;;;4.40;1.67;;;;;;;17.75;25.37;97314.81;5026002;28;20034;-81
2022/02/07 13:58:18;;;;;;;1.75;1.10;;;;;;;17.71;25.63;97334.25;5029732;28;20053;-81
2022/02/07 14:00:50;;;;;;;3.53;1.30;;;;;;;17.66;26.17;97331.94;5024096;28;20437;-82
2022/02/07 14:03:20;;;;;;;4.15;1.67;;;;;;;16.78;26.63;97335.22;5022297;28;20471;-83
2022/02/07 14:05:49;;;;;;;3.67;1.52;;;;;;;18.22;24.59;97333.41;5019174;28;20060;-84
2022/02/07 14:08:16;;;;;;;4.53;1.50;;;;;;;18.71;23.86;97331.28;5019066;28;20033;-83
2022/02/07 14:10:44;;;;;;;1.60;1.00;;;;;;;18.65;24.21;97335.75;5021276;28;20029;-83
2022/02/07 14:13:15;;;;;;;4.10;1.27;;;;;;;17.94;24.07;97356.69;5027032;28;20034;-83
2022/02/07 14:15:43;;;;;;;;;;;;;;;17.16;24.59;97348.13;5020649;28;20036;-83